Thorco Crystal — V2BP9 — position and weather

sailwx.info

Track history (hours):
 
Tides and Currents Weather Stations Pressure Air Temp Water Temp Dewpoint Dewpoint Depression Visibility Wind Speed Wind Dir Waves Ship Positions

Thorco Crystal

Last reported at 2015-Sep-05 15:32 UTC. Time now 2015-Sep-05 16:17 UTC.
Position N 37°37' E 010°18'.

Length 145 m; draft 6.3 m.

Type: Ship. MMSI: 304736000.

Date/timePositionNaut miles runAvg speedWind from/ knotsBaromVisibWave heightAir tempDewpointWater temp
2015-Sep-05 15:32N 37°37' E 010°18'1912.7
2015-Sep-05 14:03N 37°33' E 010°41'1112.9
2015-Sep-05 13:12N 37°30' E 010°54'5511.4
2015-Sep-05 08:25N 36°47' E 011°37'2812.5
2015-Sep-05 06:12N 36°22' E 011°50'  
2015-Aug-27 16:26N 35°33' E 013°55'1112.7
2015-Aug-27 15:33N 35°37' E 014°08'1313.0
2015-Aug-27 14:33N 35°42' E 014°23'1713.3
2015-Aug-27 13:15N 35°50' E 014°42'4 0.6
2015-Aug-27 05:31N 35°52' E 014°46'0 0.0
2015-Aug-27 04:19N 35°52' E 014°46'0 0.0
2015-Aug-27 03:19N 35°52' E 014°46'0 0.1
2015-Aug-27 01:33N 35°52' E 014°46'7 7.3
2015-Aug-27 00:34N 35°58' E 014°51'  
Track history (hours):
 
Tides and Currents Weather Stations Pressure Air Temp Water Temp Dewpoint Dewpoint Depression Visibility Wind Speed Wind Dir Waves Ship Positions

Thorco Crystal

Last reported at 2015-Sep-05 15:32 UTC. Time now 2015-Sep-05 16:17 UTC.
Position N 37°37' E 010°18'.

Length 145 m; draft 6.3 m.

Type: Ship. MMSI: 304736000.

Date/timePositionNaut miles runAvg speedWind from/ knotsBaromVisibWave heightAir tempDewpointWater temp
2015-Sep-05 15:32N 37°37' E 010°18'1912.7
2015-Sep-05 14:03N 37°33' E 010°41'1112.9
2015-Sep-05 13:12N 37°30' E 010°54'5511.4
2015-Sep-05 08:25N 36°47' E 011°37'2812.5
2015-Sep-05 06:12N 36°22' E 011°50'  
2015-Aug-27 16:26N 35°33' E 013°55'1112.7
2015-Aug-27 15:33N 35°37' E 014°08'1313.0
2015-Aug-27 14:33N 35°42' E 014°23'1713.3
2015-Aug-27 13:15N 35°50' E 014°42'4 0.6
2015-Aug-27 05:31N 35°52' E 014°46'0 0.0
2015-Aug-27 04:19N 35°52' E 014°46'0 0.0
2015-Aug-27 03:19N 35°52' E 014°46'0 0.1
2015-Aug-27 01:33N 35°52' E 014°46'7 7.3
2015-Aug-27 00:34N 35°58' E 014°51'  

Dump ship's entire track history